Time;durP1;ratioP1;P1;durP2;ratioP2;P2;SDS_P1;SDS_P2;PMS_P1;PMS_P2;Temp;Humidity;BMP_temperature;BMP_pressure;BME280_temperature;BME280_humidity;BME280_pressure;Samples;Min_cycle;Max_cycle;Signal;HPM_P1;HPM_P2
2023/09/12 00:01:27;;;;;;;16.58;10.70;;;;;;;29.70;77.44;100886.38;4914320;28;69877;-36
2023/09/12 00:03:57;;;;;;;15.55;12.93;;;;;;;29.77;77.99;100894.44;4915949;28;66302;-39
2023/09/12 00:06:29;;;;;;;;;;;;;;;29.58;80.38;100902.34;4916450;28;69454;-37
2023/09/12 00:09:00;;;;;;;19.10;11.43;;;;;;;29.78;77.52;100907.75;4903960;28;66147;-39
2023/09/12 00:11:30;;;;;;;13.93;10.60;;;;;;;29.77;80.90;100908.78;4920270;28;69966;-35
2023/09/12 00:14:00;;;;;;;10.70;9.60;;;;;;;29.82;80.24;100911.69;4911369;28;66303;-39
2023/09/12 00:16:30;;;;;;;18.35;9.82;;;;;;;29.84;80.38;100904.19;4920925;28;70303;-36
2023/09/12 00:19:00;;;;;;;10.73;9.20;;;;;;;29.82;79.07;100895.47;4907901;28;65511;-37
2023/09/12 00:21:31;;;;;;;8.45;7.70;;;;;;;29.87;80.01;100904.81;4921963;28;70533;-36
2023/09/12 00:24:01;;;;;;;9.30;8.50;;;;;;;29.93;78.41;100907.50;4912868;28;65562;-37
2023/09/12 00:26:31;;;;;;;10.95;8.82;;;;;;;29.94;79.94;100913.72;4920233;28;70355;-39
2023/09/12 00:29:01;;;;;;;13.98;8.50;;;;;;;29.99;77.06;100911.22;4917104;28;66319;-38
2023/09/12 00:31:31;;;;;;;9.55;8.63;;;;;;;29.98;79.19;100910.41;4913069;28;70005;-37
2023/09/12 00:34:01;;;;;;;9.77;8.38;;;;;;;29.84;79.45;100890.69;4905153;28;66575;-36
2023/09/12 00:36:32;;;;;;;9.88;7.80;;;;;;;30.01;80.13;100917.25;4893874;28;69224;-38
2023/09/12 00:39:03;;;;;;;9.23;8.07;;;;;;;30.01;78.92;100925.38;4925355;28;66941;-36
2023/09/12 00:41:33;;;;;;;15.23;8.80;;;;;;;30.03;78.75;100929.53;4916021;28;70075;-37
2023/09/12 00:44:03;;;;;;;9.32;8.20;;;;;;;30.00;79.95;100923.69;4920640;28;65973;-35
2023/09/12 00:46:34;;;;;;;8.73;7.88;;;;;;;29.95;79.10;100937.03;4897108;28;69775;-38
2023/09/12 00:49:07;;;;;;;8.52;7.55;;;;;;;30.05;79.46;100942.81;4899188;28;66166;-36
2023/09/12 00:51:37;;;;;;;10.73;9.50;;;;;;;30.10;77.07;100940.31;4921123;28;70620;-37
2023/09/12 00:54:08;;;;;;;9.93;8.98;;;;;;;30.09;78.77;100944.06;4925172;28;66414;-38
2023/09/12 00:56:38;;;;;;;9.05;8.07;;;;;;;30.21;75.17;100950.47;4909040;28;69765;-38
2023/09/12 00:59:11;;;;;;;7.57;6.80;;;;;;;30.20;73.88;100940.69;4901626;28;66283;-37
2023/09/12 01:01:41;;;;;;;6.95;6.47;;;;;;;30.29;73.25;100949.44;4911460;28;69299;-38
2023/09/12 01:04:11;;;;;;;7.55;5.95;;;;;;;30.35;72.96;100959.41;4878657;28;66773;-36
2023/09/12 01:07:04;;;;;;;5.60;5.10;;;;;;;30.34;72.46;100957.75;4919238;28;70759;-38
2023/09/12 01:09:34;;;;;;;4.30;4.00;;;;;;;30.44;72.25;100966.22;4916195;28;65280;-39
2023/09/12 01:12:05;;;;;;;4.40;4.05;;;;;;;30.47;72.00;100973.91;4924035;28;69703;-36
2023/09/12 01:14:35;;;;;;;7.07;3.85;;;;;;;30.48;71.87;100969.34;4914182;28;66400;-36
2023/09/12 01:17:05;;;;;;;6.30;3.78;;;;;;;30.53;71.86;100980.31;4919158;28;70020;-35
2023/09/12 01:19:35;;;;;;;3.90;3.60;;;;;;;30.57;71.68;100984.28;4925480;28;66005;-37
2023/09/12 01:22:20;;;;;;;3.28;3.05;;;;;;;30.60;71.43;100983.84;4911405;28;70122;-37
2023/09/12 01:25:08;;;;;;;3.47;3.08;;;;;;;30.61;71.73;100988.19;4913891;28;66783;-38
2023/09/12 01:27:50;;;;;;;3.47;3.17;;;;;;;30.30;71.74;100948.38;4930904;28;70236;-37
2023/09/12 01:30:28;;;;;;;2.92;2.70;;;;;;;30.66;71.19;100999.22;4916478;28;66024;-36
2023/09/12 01:33:00;;;;;;;2.92;2.72;;;;;;;30.70;71.37;100999.59;4910861;28;71042;-36
2023/09/12 01:35:30;;;;;;;2.60;2.40;;;;;;;30.70;70.80;101000.47;4922688;28;66008;-36
2023/09/12 01:38:01;;;;;;;2.47;2.28;;;;;;;30.75;70.82;101004.38;4934818;28;70879;-37
2023/09/12 01:40:57;;;;;;;2.20;2.00;;;;;;;30.61;71.08;101007.16;4917052;28;66289;-36
2023/09/12 01:43:29;;;;;;;1.98;1.80;;;;;;;30.73;70.83;100994.63;4910575;28;69050;-36
2023/09/12 01:46:00;;;;;;;2.25;1.83;;;;;;;30.77;70.70;101000.41;4940645;28;66048;-37
2023/09/12 01:48:36;;;;;;;2.40;2.20;;;;;;;30.35;70.40;100935.03;4924952;28;70578;-36
2023/09/12 01:51:07;;;;;;;1.85;1.70;;;;;;;30.75;70.57;100996.25;4923071;28;66268;-36
2023/09/12 01:53:39;;;;;;;2.00;1.70;;;;;;;30.81;70.22;100995.41;4922491;28;70077;-37
2023/09/12 01:56:09;;;;;;;1.75;1.65;;;;;;;30.89;70.32;101006.81;4905505;28;65769;-36
2023/09/12 01:58:39;;;;;;;1.70;1.60;;;;;;;30.91;70.50;101004.75;4900248;28;69893;-36
2023/09/12 02:01:11;;;;;;;1.73;1.60;;;;;;;30.49;70.00;100947.44;4907454;28;66045;-37
2023/09/12 02:03:41;;;;;;;1.70;1.60;;;;;;;30.96;70.04;101020.34;4916913;28;69737;-37
2023/09/12 02:06:12;;;;;;;1.60;1.42;;;;;;;30.99;69.73;101025.31;4886940;28;65665;-37
2023/09/12 02:08:42;;;;;;;1.70;1.60;;;;;;;31.03;69.87;101020.28;4902773;28;69226;-37
2023/09/12 02:11:12;;;;;;;2.13;1.50;;;;;;;31.04;69.52;101022.81;4882991;29;66513;-36
2023/09/12 02:13:42;;;;;;;2.50;1.50;;;;;;;31.03;69.54;101018.41;4914855;28;68752;-39
2023/09/12 02:16:13;;;;;;;1.55;1.45;;;;;;;31.04;69.50;101017.38;4923715;28;66980;-36
2023/09/12 02:18:43;;;;;;;1.63;1.25;;;;;;;31.12;69.56;101019.84;4916153;28;70407;-39
2023/09/12 02:21:15;;;;;;;1.20;1.10;;;;;;;31.11;69.43;101012.72;4892352;28;65939;-36
2023/09/12 02:23:45;;;;;;;1.40;1.30;;;;;;;31.14;69.63;101025.84;4890171;28;69145;-35
2023/09/12 02:26:15;;;;;;;1.40;1.30;;;;;;;31.20;69.30;101026.84;4907083;28;66366;-36
2023/09/12 02:28:46;;;;;;;1.10;1.00;;;;;;;31.21;69.25;101023.09;4904201;28;69899;-36
2023/09/12 02:31:16;;;;;;;3.47;1.25;;;;;;;31.22;69.12;101021.22;4905936;28;67068;-37
2023/09/12 02:33:50;;;;;;;1.60;1.02;;;;;;;31.25;69.03;101018.06;4906465;28;69751;-42
2023/09/12 02:36:20;;;;;;;1.17;1.08;;;;;;;31.29;69.09;101030.97;4920284;28;66258;-37
2023/09/12 02:38:51;;;;;;;1.42;1.30;;;;;;;31.31;68.67;101028.84;4935924;28;70627;-39
2023/09/12 02:41:21;;;;;;;1.07;0.83;;;;;;;31.32;68.83;101024.28;4887507;29;65972;-37
2023/09/12 02:43:51;;;;;;;1.15;1.00;;;;;;;31.36;68.62;101025.53;4918677;28;70725;-37
2023/09/12 02:46:21;;;;;;;1.55;0.98;;;;;;;31.39;68.40;101030.50;4905719;28;66542;-36
2023/09/12 02:48:51;;;;;;;1.27;1.00;;;;;;;31.34;68.63;101014.03;4910474;28;70647;-37
2023/09/12 02:51:21;;;;;;;1.73;1.02;;;;;;;31.43;68.38;101020.88;4893835;28;66243;-37
2023/09/12 02:53:51;;;;;;;1.33;1.20;;;;;;;31.46;68.48;101019.63;4925415;28;69517;-37
2023/09/12 02:56:21;;;;;;;0.95;0.90;;;;;;;31.49;68.52;101014.56;4905960;28;66342;-39
2023/09/12 02:58:52;;;;;;;1.80;0.93;;;;;;;31.35;68.32;100991.31;4907748;28;69753;-38
2023/09/12 03:01:27;;;;;;;0.73;0.70;;;;;;;31.53;68.25;101010.34;4878558;28;66317;-37
2023/09/12 03:03:58;;;;;;;2.25;0.90;;;;;;;31.55;67.84;101002.84;4912775;28;70140;-39
2023/09/12 03:06:29;;;;;;;1.23;0.70;;;;;;;31.54;68.01;100994.94;4905339;28;65527;-37
2023/09/12 03:09:00;;;;;;;1.60;0.80;;;;;;;31.39;68.01;100965.44;4900315;28;70066;-36
2023/09/12 03:11:30;;;;;;;1.08;0.80;;;;;;;31.63;67.99;100990.06;4908772;28;66403;-37
2023/09/12 03:14:00;;;;;;;0.90;0.80;;;;;;;31.64;67.81;100989.00;4887523;28;70096;-36
2023/09/12 03:16:31;;;;;;;1.23;0.85;;;;;;;31.66;67.92;100998.56;4903054;28;66675;-37
2023/09/12 03:19:02;;;;;;;0.90;0.90;;;;;;;31.67;67.69;100994.78;4902737;28;69769;-36
2023/09/12 03:21:33;;;;;;;1.30;1.00;;;;;;;31.67;67.89;100983.13;4908235;28;66050;-38
2023/09/12 03:24:04;;;;;;;1.03;0.93;;;;;;;31.70;67.51;100982.69;4880090;29;70207;-37
2023/09/12 03:26:35;;;;;;;3.13;0.77;;;;;;;31.75;67.58;100980.13;4904445;28;66464;-37
2023/09/12 03:29:06;;;;;;;1.27;0.90;;;;;;;31.74;67.58;100981.19;4922935;28;70374;-35
2023/09/12 03:31:36;;;;;;;1.63;0.70;;;;;;;31.75;67.47;100974.69;4918146;28;65960;-40
2023/09/12 03:34:06;;;;;;;1.00;0.75;;;;;;;31.79;67.55;100987.59;4896192;28;69125;-39
2023/09/12 03:36:36;;;;;;;1.45;0.93;;;;;;;31.80;67.16;100983.81;4902603;28;65563;-36
2023/09/12 03:39:08;;;;;;;1.23;1.13;;;;;;;31.82;67.26;100975.47;4919910;28;69627;-36
2023/09/12 03:41:38;;;;;;;2.95;0.95;;;;;;;31.84;67.21;100978.78;4921964;28;66578;-37
2023/09/12 03:44:08;;;;;;;1.00;0.88;;;;;;;31.84;67.13;100967.91;4909788;28;70180;-38
2023/09/12 03:46:39;;;;;;;1.08;0.90;;;;;;;31.80;67.09;100953.16;4904878;28;65526;-36
2023/09/12 03:49:09;;;;;;;1.23;0.90;;;;;;;31.91;66.85;100957.03;4916249;28;69801;-39
2023/09/12 03:51:41;;;;;;;1.00;0.80;;;;;;;31.88;66.98;100963.72;4890913;28;66033;-38
2023/09/12 03:54:11;;;;;;;0.95;0.70;;;;;;;31.91;66.98;100974.16;4882538;28;70154;-37
2023/09/12 03:56:41;;;;;;;0.80;0.70;;;;;;;31.92;66.83;100964.94;4925950;28;66558;-36
2023/09/12 03:59:15;;;;;;;1.40;1.00;;;;;;;31.91;66.82;100968.72;4905216;28;68752;-38
2023/09/12 04:01:47;;;;;;;1.02;0.93;;;;;;;31.94;66.66;100964.72;4891419;28;65305;-37
2023/09/12 04:04:17;;;;;;;2.35;1.10;;;;;;;31.95;66.49;100966.38;4914296;28;70509;-37
2023/09/12 04:06:48;;;;;;;2.75;1.02;;;;;;;31.97;66.63;100980.56;4907451;28;66476;-36
2023/09/12 04:09:18;;;;;;;1.40;1.05;;;;;;;31.95;66.71;100966.38;4914920;28;70700;-38
2023/09/12 04:11:49;;;;;;;1.33;1.13;;;;;;;31.98;66.44;100969.50;4931186;28;66667;-37
2023/09/12 04:14:22;;;;;;;4.15;0.98;;;;;;;32.02;66.66;100965.25;4890675;28;70611;-42
2023/09/12 04:16:52;;;;;;;1.13;1.02;;;;;;;32.03;66.40;100966.91;4908844;28;65313;-39
2023/09/12 04:19:23;;;;;;;1.38;0.98;;;;;;;32.07;66.38;100971.88;4912142;28;70143;-37
2023/09/12 04:21:53;;;;;;;2.40;1.27;;;;;;;32.09;66.54;100975.19;4905850;28;66692;-37
2023/09/12 04:24:23;;;;;;;1.63;1.00;;;;;;;32.10;66.38;100987.72;4909341;28;69476;-36
2023/09/12 04:26:54;;;;;;;2.00;1.25;;;;;;;32.07;66.24;100967.31;4928146;28;66317;-37
2023/09/12 04:29:24;;;;;;;3.25;1.05;;;;;;;32.11;66.36;100978.53;4924098;28;69950;-37
2023/09/12 04:31:59;;;;;;;4.97;1.10;;;;;;;32.13;66.28;100979.97;4908954;28;65601;-37
2023/09/12 04:34:30;;;;;;;1.88;1.38;;;;;;;32.05;66.32;100955.84;4907071;28;70406;-37
2023/09/12 04:37:02;;;;;;;3.53;1.30;;;;;;;32.14;66.22;100978.06;4892589;28;66593;-36
2023/09/12 04:39:32;;;;;;;;;;;;;;;31.88;66.99;100980.00;4910383;28;69582;-36
2023/09/12 04:42:04;;;;;;;1.05;0.80;;;;;;;32.13;66.14;100962.84;4908214;28;66558;-37
2023/09/12 04:44:41;;;;;;;1.30;1.10;;;;;;;32.13;66.16;100954.72;4910562;28;69628;-37
2023/09/12 04:47:12;;;;;;;1.27;0.95;;;;;;;32.17;65.83;100961.34;4911338;28;65244;-37
2023/09/12 04:49:44;;;;;;;1.50;0.90;;;;;;;31.97;65.72;100929.84;4914049;28;70259;-37
2023/09/12 04:52:14;;;;;;;1.38;0.90;;;;;;;32.10;65.52;100950.56;4913886;28;66570;-37
2023/09/12 04:54:43;;;;;;;5.40;0.80;;;;;;;32.13;65.37;100943.84;4918614;28;69691;-41
2023/09/12 04:57:14;;;;;;;0.93;0.60;;;;;;;32.20;65.40;100947.31;4908271;28;65867;-37
2023/09/12 04:59:44;;;;;;;1.60;0.77;;;;;;;32.19;65.22;100942.94;4904335;28;70011;-37
2023/09/12 05:02:15;;;;;;;1.08;0.70;;;;;;;32.20;65.16;100944.59;4901528;28;66557;-37
2023/09/12 05:04:45;;;;;;;0.60;0.40;;;;;;;32.19;65.13;100940.22;4906433;28;70338;-36
2023/09/12 05:07:15;;;;;;;0.50;0.30;;;;;;;32.19;65.20;100937.50;4913824;28;66834;-39
2023/09/12 05:09:45;;;;;;;0.50;0.40;;;;;;;32.20;64.86;100920.16;4898810;28;69286;-38
2023/09/12 05:12:15;;;;;;;0.70;0.50;;;;;;;32.20;64.70;100917.44;4905864;28;66204;-39
2023/09/12 05:14:48;;;;;;;1.20;0.40;;;;;;;32.21;64.76;100908.28;4906998;28;69063;-37
2023/09/12 05:17:18;;;;;;;0.57;0.50;;;;;;;32.12;64.76;100893.34;4916636;28;65718;-38
2023/09/12 05:19:48;;;;;;;1.05;0.60;;;;;;;32.17;64.58;100896.19;4929838;28;70144;-37
2023/09/12 05:22:19;;;;;;;0.85;0.65;;;;;;;32.21;64.69;100886.56;4896750;28;66980;-40
2023/09/12 05:24:50;;;;;;;0.55;0.55;;;;;;;32.18;64.86;100878.84;4904683;28;69745;-38
2023/09/12 05:27:20;;;;;;;1.02;0.75;;;;;;;32.22;64.80;100866.50;4907016;28;66520;-46
2023/09/12 05:29:50;;;;;;;0.80;0.60;;;;;;;32.12;64.73;100858.88;4906717;28;69316;-38
2023/09/12 05:32:20;;;;;;;1.10;0.52;;;;;;;32.20;64.42;100863.16;4896837;28;66116;-36
2023/09/12 05:34:50;;;;;;;0.70;0.57;;;;;;;32.22;64.74;100861.88;4911019;28;69760;-38
2023/09/12 05:37:31;;;;;;;0.73;0.63;;;;;;;32.18;64.68;100854.41;4928473;28;65388;-37
2023/09/12 05:40:02;;;;;;;1.05;0.60;;;;;;;32.15;65.00;100844.03;4910588;28;69703;-38
2023/09/12 05:42:33;;;;;;;0.70;0.60;;;;;;;32.18;64.63;100843.56;4894095;28;65896;-36
2023/09/12 05:45:03;;;;;;;0.93;0.85;;;;;;;32.13;64.74;100819.84;4897773;28;69857;-36
2023/09/12 05:47:33;;;;;;;0.60;0.60;;;;;;;32.19;64.96;100823.53;4930666;28;66559;-36
2023/09/12 05:50:07;;;;;;;1.17;0.82;;;;;;;32.16;64.90;100818.56;4907090;28;69782;-38
2023/09/12 05:52:37;;;;;;;1.00;0.80;;;;;;;32.13;64.67;100813.59;4921507;28;66195;-37
2023/09/12 05:55:07;;;;;;;1.38;0.85;;;;;;;32.22;64.88;100828.50;4901248;28;70698;-37
2023/09/12 05:57:38;;;;;;;0.80;0.80;;;;;;;32.21;64.83;100818.69;4912802;28;65458;-37
2023/09/12 06:00:11;;;;;;;3.50;1.05;;;;;;;32.21;64.83;100805.13;4907384;28;69625;-38
2023/09/12 06:02:43;;;;;;;1.30;1.15;;;;;;;32.19;65.01;100793.69;4894968;28;66129;-37
2023/09/12 06:05:14;;;;;;;1.55;1.00;;;;;;;32.21;65.08;100792.38;4915518;28;69931;-39
2023/09/12 06:07:46;;;;;;;2.95;1.00;;;;;;;32.20;64.86;100787.19;4918861;28;65891;-44
2023/09/12 06:10:16;;;;;;;1.20;1.00;;;;;;;32.20;64.90;100787.19;4928379;28;71072;-37
2023/09/12 06:12:46;;;;;;;2.33;1.50;;;;;;;32.22;64.96;100787.78;4911842;28;66350;-38
2023/09/12 06:15:17;;;;;;;1.60;1.50;;;;;;;32.22;65.13;100785.06;4906553;28;69821;-38
2023/09/12 06:17:47;;;;;;;1.70;1.42;;;;;;;32.22;64.99;100785.06;4906317;28;65834;-39
2023/09/12 06:20:17;;;;;;;2.15;1.95;;;;;;;32.21;64.81;100789.66;4891476;28;68869;-36
2023/09/12 06:22:49;;;;;;;1.95;1.85;;;;;;;32.22;65.17;100774.22;4920519;28;66245;-39
2023/09/12 06:25:19;;;;;;;1.73;1.63;;;;;;;32.20;64.70;100770.88;4916481;28;68981;-39
2023/09/12 06:27:50;;;;;;;1.83;1.73;;;;;;;32.17;64.90;100772.19;4902594;28;66058;-40
2023/09/12 06:30:20;;;;;;;1.40;1.30;;;;;;;32.18;64.89;100773.00;4890165;28;69851;-40
2023/09/12 06:32:50;;;;;;;1.65;1.55;;;;;;;32.15;64.88;100754.47;4913893;28;65775;-40
2023/09/12 06:35:20;;;;;;;1.55;1.45;;;;;;;32.24;65.27;100764.78;4880665;28;69917;-38
2023/09/12 06:37:50;;;;;;;1.75;1.63;;;;;;;32.25;65.07;100763.72;4905161;28;65511;-37
2023/09/12 06:40:20;;;;;;;2.35;1.65;;;;;;;32.26;65.00;100759.09;4914505;28;70921;-37
2023/09/12 06:42:50;;;;;;;1.38;1.27;;;;;;;32.29;65.00;100745.09;4901395;28;65425;-37
2023/09/12 06:45:20;;;;;;;1.40;1.30;;;;;;;32.27;65.16;100744.50;4922065;28;70285;-41
2023/09/12 06:47:50;;;;;;;1.92;1.60;;;;;;;32.30;65.01;100754.88;4912408;28;65807;-37
2023/09/12 06:50:21;;;;;;;1.85;1.75;;;;;;;32.32;65.06;100751.91;4926747;28;70577;-37
2023/09/12 06:52:51;;;;;;;1.80;1.65;;;;;;;32.32;65.12;100752.75;4922735;28;66391;-36
2023/09/12 06:55:24;;;;;;;2.00;1.90;;;;;;;32.33;65.17;100754.41;4919331;28;70055;-36
2023/09/12 06:57:54;;;;;;;1.98;1.80;;;;;;;32.18;65.14;100724.16;4926229;28;65571;-37
2023/09/12 07:00:26;;;;;;;1.58;1.48;;;;;;;32.33;64.92;100735.41;4918731;28;69763;-37
2023/09/12 07:02:57;;;;;;;2.08;1.98;;;;;;;32.35;65.44;100738.72;4917369;28;65541;-41
2023/09/12 07:05:28;;;;;;;1.92;1.83;;;;;;;32.33;65.09;100732.69;4879082;28;69988;-37
2023/09/12 07:07:58;;;;;;;2.00;1.90;;;;;;;32.36;65.09;100739.53;4902098;28;65248;-36
2023/09/12 07:10:28;;;;;;;2.33;2.13;;;;;;;32.36;64.95;100736.81;4922653;28;69943;-38
2023/09/12 07:12:58;;;;;;;1.70;1.60;;;;;;;32.33;65.13;100727.25;4921103;28;65399;-37
2023/09/12 07:15:28;;;;;;;2.08;1.77;;;;;;;32.27;65.25;100728.19;4897213;28;69519;-39
2023/09/12 07:17:59;;;;;;;1.60;1.50;;;;;;;32.36;65.31;100737.66;4917908;28;65374;-37
2023/09/12 07:20:29;;;;;;;4.65;1.73;;;;;;;32.36;65.07;100734.94;4926950;28;70204;-37
2023/09/12 07:22:59;;;;;;;1.45;1.35;;;;;;;32.36;65.27;100732.22;4900610;28;66191;-37
2023/09/12 07:25:29;;;;;;;1.67;1.58;;;;;;;32.34;65.04;100734.34;4923042;28;70248;-37
2023/09/12 07:27:59;;;;;;;2.47;1.65;;;;;;;32.37;64.94;100728.44;4920094;28;65776;-37
2023/09/12 07:30:30;;;;;;;2.05;1.95;;;;;;;32.37;65.09;100720.28;4927250;28;68664;-38
2023/09/12 07:33:00;;;;;;;1.73;1.63;;;;;;;32.39;65.06;100720.88;4922591;28;64272;-38
2023/09/12 07:35:30;;;;;;;1.88;1.77;;;;;;;32.38;65.29;100724.69;4925795;28;70212;-37
2023/09/12 07:38:00;;;;;;;2.00;1.90;;;;;;;32.37;65.09;100716.75;4913532;28;66645;-38
2023/09/12 07:40:30;;;;;;;1.60;1.50;;;;;;;32.15;65.10;100671.19;4931532;28;69487;-39
2023/09/12 07:43:02;;;;;;;1.70;1.60;;;;;;;32.40;65.10;100711.69;4910549;28;65599;-38
2023/09/12 07:45:36;;;;;;;1.67;1.50;;;;;;;32.38;65.11;100697.53;4912475;28;69768;-37
2023/09/12 07:48:10;;;;;;;2.05;1.60;;;;;;;32.38;65.21;100686.66;4919080;28;66126;-38
2023/09/12 07:50:40;;;;;;;2.00;1.90;;;;;;;32.38;64.96;100689.38;4909372;28;70398;-37
2023/09/12 07:53:10;;;;;;;2.10;1.75;;;;;;;32.39;65.02;100703.78;4902718;28;66611;-39
2023/09/12 07:55:45;;;;;;;1.63;1.48;;;;;;;32.31;65.22;100693.25;4921601;28;69345;-39
2023/09/12 07:58:18;;;;;;;1.48;1.38;;;;;;;32.41;65.28;100696.25;4913109;28;66164;-38
2023/09/12 08:00:48;;;;;;;1.50;1.40;;;;;;;32.36;65.13;100683.34;4912673;28;69911;-37
2023/09/12 08:03:19;;;;;;;2.00;1.60;;;;;;;32.42;65.06;100703.31;4927787;28;66448;-37
2023/09/12 08:05:59;;;;;;;3.67;1.50;;;;;;;32.40;65.19;100692.69;4901820;28;69373;-36
2023/09/12 08:08:30;;;;;;;1.60;1.50;;;;;;;32.42;64.99;100695.97;4919157;28;66894;-39
2023/09/12 08:11:00;;;;;;;1.58;1.45;;;;;;;32.41;65.01;100707.91;4908428;28;69061;-36
2023/09/12 08:13:31;;;;;;;2.08;1.67;;;;;;;32.41;64.97;100702.50;4919248;28;66484;-37
2023/09/12 08:16:01;;;;;;;2.30;1.90;;;;;;;32.40;65.00;100697.28;4913532;28;70276;-38
2023/09/12 08:18:31;;;;;;;4.28;1.73;;;;;;;32.41;65.01;100702.50;4920194;28;66152;-37
2023/09/12 08:21:02;;;;;;;1.55;1.45;;;;;;;32.40;65.04;100706.28;4907493;28;69921;-38
2023/09/12 08:23:32;;;;;;;2.17;1.98;;;;;;;32.35;65.15;100684.44;4920802;28;65827;-36
2023/09/12 08:26:02;;;;;;;1.70;1.60;;;;;;;32.41;65.42;100691.63;4909973;28;69865;-37
2023/09/12 08:28:32;;;;;;;2.08;1.75;;;;;;;32.37;64.79;100685.00;4915517;28;66739;-38
2023/09/12 08:31:02;;;;;;;1.75;1.63;;;;;;;32.39;65.00;100682.88;4904755;28;70296;-38
2023/09/12 08:33:33;;;;;;;1.73;1.63;;;;;;;32.39;65.19;100688.31;4912524;28;66448;-37
2023/09/12 08:36:03;;;;;;;1.50;1.40;;;;;;;32.40;65.35;100684.56;4929524;28;70546;-37
2023/09/12 08:38:33;;;;;;;1.83;1.65;;;;;;;32.39;65.18;100682.88;4924569;28;65342;-37
2023/09/12 08:41:03;;;;;;;1.83;1.58;;;;;;;32.39;65.19;100688.31;4933024;28;70442;-36
2023/09/12 08:43:33;;;;;;;2.05;1.88;;;;;;;32.36;64.96;100677.94;4928738;28;65353;-36
2023/09/12 08:46:05;;;;;;;1.60;1.50;;;;;;;32.38;65.21;100675.81;4902067;28;70601;-37
2023/09/12 08:48:37;;;;;;;;;;;;;;;32.09;66.25;100693.00;4907358;28;66447;-36
2023/09/12 08:51:09;;;;;;;3.58;1.92;;;;;;;32.34;65.32;100684.66;4926882;28;70698;-38
2023/09/12 08:53:39;;;;;;;;;;;;;;;32.07;66.03;100686.97;4908896;28;66081;-37
2023/09/12 08:56:10;;;;;;;1.50;1.40;;;;;;;32.32;65.38;100693.03;4928678;28;69304;-36
2023/09/12 08:58:41;;;;;;;1.63;1.52;;;;;;;32.33;65.24;100699.28;4927353;28;65007;-37
2023/09/12 09:01:14;;;;;;;2.05;1.90;;;;;;;31.96;65.60;100632.47;4917566;28;70507;-38
2023/09/12 09:03:45;;;;;;;1.65;1.55;;;;;;;32.32;64.91;100692.19;4920258;28;66751;-37
2023/09/12 09:06:17;;;;;;;1.98;1.80;;;;;;;32.34;65.15;100695.50;4925470;28;69923;-36
2023/09/12 09:08:50;;;;;;;1.77;1.55;;;;;;;32.36;65.40;100691.50;4920135;28;66435;-37
2023/09/12 09:11:21;;;;;;;1.70;1.35;;;;;;;32.35;65.25;100697.19;4911409;28;69204;-36
2023/09/12 09:13:52;;;;;;;2.20;1.90;;;;;;;32.33;65.30;100683.84;4906218;28;65541;-36
2023/09/12 09:16:23;;;;;;;1.95;1.52;;;;;;;32.07;65.06;100646.28;4923887;28;70108;-36
2023/09/12 09:18:55;;;;;;;;;;;;;;;32.04;66.13;100691.81;4920685;28;65463;-37
2023/09/12 09:21:27;;;;;;;1.95;1.42;;;;;;;31.98;65.50;100637.66;4923774;28;69658;-38
2023/09/12 09:24:03;;;;;;;1.95;1.83;;;;;;;31.71;65.41;100593.84;4917649;28;66287;-37
2023/09/12 09:26:48;;;;;;;2.08;1.88;;;;;;;32.22;65.04;100687.34;4923995;28;70443;-37
2023/09/12 09:29:21;;;;;;;2.38;2.08;;;;;;;32.14;66.25;100693.94;4913459;28;66560;-40
2023/09/12 09:31:53;;;;;;;5.93;3.70;;;;;;;31.61;67.96;100635.06;4899429;28;69304;-38
2023/09/12 09:34:24;;;;;;;6.05;4.15;;;;;;;31.90;68.74;100695.78;4917210;28;65717;-38
2023/09/12 09:36:56;;;;;;;5.10;4.63;;;;;;;31.86;68.96;100699.16;4922809;28;70058;-38
2023/09/12 09:39:31;;;;;;;5.05;4.60;;;;;;;31.98;67.94;100709.03;4929135;28;66136;-39
2023/09/12 09:42:02;;;;;;;7.03;5.75;;;;;;;32.03;67.33;100703.72;4925496;28;70472;-38
2023/09/12 09:44:33;;;;;;;6.33;5.83;;;;;;;31.98;67.41;100692.75;4929037;28;65640;-37
2023/09/12 09:47:03;;;;;;;8.88;6.95;;;;;;;32.08;67.45;100702.22;4935052;28;69610;-39
2023/09/12 09:49:35;;;;;;;6.68;6.20;;;;;;;32.01;67.01;100692.28;4916956;28;65470;-37
2023/09/12 09:52:06;;;;;;;7.63;7.13;;;;;;;32.07;67.10;100711.38;4918399;28;70350;-37
2023/09/12 09:54:43;;;;;;;9.73;6.75;;;;;;;31.79;67.18;100662.13;4935390;28;65710;-44
2023/09/12 09:57:13;;;;;;;7.13;6.53;;;;;;;31.92;67.02;100699.09;4911478;28;69376;-37
2023/09/12 09:59:53;;;;;;;7.28;6.70;;;;;;;32.08;67.47;100718.50;4908395;28;66616;-38
2023/09/12 10:02:27;;;;;;;7.78;7.07;;;;;;;32.09;67.33;100720.13;4905933;28;69384;-38
2023/09/12 10:05:00;;;;;;;7.32;6.72;;;;;;;32.09;67.08;100725.56;4923143;28;65605;-37
2023/09/12 10:07:33;;;;;;;8.70;7.88;;;;;;;31.69;67.51;100658.31;4923313;28;70353;-37
2023/09/12 10:10:04;;;;;;;7.78;7.03;;;;;;;32.09;67.30;100736.41;4925741;28;66856;-36
2023/09/12 10:12:46;;;;;;;8.35;7.60;;;;;;;32.03;67.81;100730.84;4929130;28;70003;-38
2023/09/12 10:15:22;;;;;;;7.95;7.35;;;;;;;32.02;67.44;100726.50;4926076;28;66679;-39
2023/09/12 10:17:58;;;;;;;10.25;6.93;;;;;;;31.86;67.70;100705.41;4928328;28;69373;-39
2023/09/12 10:20:53;;;;;;;7.93;7.13;;;;;;;31.95;68.12;100742.03;4926805;28;64682;-38
2023/09/12 10:23:41;;;;;;;8.10;6.75;;;;;;;31.74;68.14;100712.69;4914515;28;70881;-38
2023/09/12 10:26:13;;;;;;;7.85;7.22;;;;;;;31.43;67.36;100641.38;4915773;28;66737;-40
2023/09/12 10:28:44;;;;;;;7.47;6.82;;;;;;;32.03;67.42;100749.03;4931822;28;70340;-37
2023/09/12 10:31:15;;;;;;;8.53;7.53;;;;;;;32.03;67.26;100755.28;4922414;28;65538;-37
2023/09/12 10:33:46;;;;;;;7.80;7.10;;;;;;;32.02;67.48;100748.19;4905523;28;71418;-39
2023/09/12 10:36:19;;;;;;;6.82;6.25;;;;;;;32.01;67.53;100751.13;4914420;28;65864;-37
2023/09/12 10:38:51;;;;;;;6.75;6.25;;;;;;;32.02;67.55;100748.19;4923017;28;69317;-37
2023/09/12 10:41:24;;;;;;;6.47;6.07;;;;;;;31.60;67.51;100674.91;4926583;28;65393;-37
2023/09/12 10:43:56;;;;;;;7.60;6.90;;;;;;;32.00;67.45;100752.19;4925973;28;69993;-39
2023/09/12 10:46:26;;;;;;;6.85;6.35;;;;;;;31.99;67.69;100748.66;4924174;28;66496;-38
2023/09/12 10:48:56;;;;;;;12.27;7.30;;;;;;;31.96;67.69;100749.13;4904359;28;69629;-37
2023/09/12 10:51:26;;;;;;;9.63;6.82;;;;;;;31.76;69.27;100759.38;4910288;28;65796;-38
2023/09/12 10:53:57;;;;;;;6.47;6.07;;;;;;;31.58;70.29;100757.53;4914041;28;70455;-39
2023/09/12 10:56:32;;;;;;;6.97;6.47;;;;;;;31.54;70.85;100762.59;4910503;28;66086;-38
2023/09/12 10:59:06;;;;;;;6.35;5.90;;;;;;;31.54;71.14;100770.72;4901817;28;69961;-38
2023/09/12 11:01:37;;;;;;;6.85;6.35;;;;;;;31.51;71.31;100773.91;4909265;28;66529;-38
2023/09/12 11:04:27;;;;;;;7.85;6.20;;;;;;;31.42;71.51;100777.13;4910657;28;70389;-39
2023/09/12 11:06:58;;;;;;;6.43;5.90;;;;;;;31.36;71.87;100768.03;4914470;28;66432;-40
2023/09/12 11:09:29;;;;;;;9.15;8.25;;;;;;;31.40;71.92;100785.50;4924047;28;69640;-40
2023/09/12 11:12:03;;;;;;;12.30;10.02;;;;;;;31.02;71.92;100726.88;4916231;28;65782;-38
2023/09/12 11:14:33;;;;;;;14.30;10.35;;;;;;;31.29;72.25;100769.97;4923822;28;69961;-38
2023/09/12 11:17:08;;;;;;;11.88;10.60;;;;;;;31.38;72.41;100798.44;4918482;28;43149;-37
2023/09/12 11:19:49;;;;;;;10.15;9.25;;;;;;;31.33;72.60;100793.66;4931485;28;69561;-37
2023/09/12 11:22:24;;;;;;;14.65;9.48;;;;;;;30.99;73.12;100735.47;4919357;28;65474;-38
2023/09/12 11:24:55;;;;;;;13.18;8.60;;;;;;;31.43;70.83;100787.75;4911879;28;69118;-39
2023/09/12 11:27:32;;;;;;;7.40;6.80;;;;;;;31.54;70.95;100800.56;4901889;28;66150;-37
2023/09/12 11:30:06;;;;;;;7.15;6.25;;;;;;;31.65;70.24;100806.25;4911285;28;70573;-40
2023/09/12 11:32:37;;;;;;;7.28;6.65;;;;;;;31.33;70.03;100742.16;4925664;28;65543;-38
2023/09/12 11:35:08;;;;;;;9.55;6.72;;;;;;;31.70;69.95;100806.41;4911796;28;69088;-38
2023/09/12 11:37:39;;;;;;;6.30;5.70;;;;;;;31.71;69.60;100805.38;4931751;28;65498;-39
2023/09/12 11:40:12;;;;;;;6.80;5.50;;;;;;;31.75;69.95;100812.78;4926456;28;69757;-38
2023/09/12 11:42:43;;;;;;;6.15;5.68;;;;;;;31.75;69.54;100807.38;4922104;28;65571;-40
2023/09/12 11:45:13;;;;;;;7.57;5.17;;;;;;;31.77;69.66;100804.44;4917047;28;70399;-38
2023/09/12 11:47:45;;;;;;;5.95;5.43;;;;;;;31.80;69.34;100812.13;4921790;28;66547;-40